createdAt,value
2022-09-22T00:01:28.189Z,77.81
2022-09-22T00:03:58.228Z,78.00
2022-09-22T00:06:30.678Z,78.27
2022-09-22T00:09:00.954Z,78.37
2022-09-22T00:11:34.465Z,77.82
2022-09-22T00:14:06.375Z,78.22
2022-09-22T00:16:39.394Z,78.08
2022-09-22T00:19:09.623Z,78.34
2022-09-22T00:21:38.411Z,78.57
2022-09-22T00:24:07.956Z,79.36
2022-09-22T00:26:38.028Z,79.91
2022-09-22T00:29:09.856Z,81.18
2022-09-22T00:31:41.338Z,82.12
2022-09-22T00:34:13.250Z,81.84
2022-09-22T00:36:39.932Z,82.42
2022-09-22T00:39:06.673Z,83.44
2022-09-22T00:41:37.345Z,83.20
2022-09-22T00:44:39.212Z,84.68
2022-09-22T00:47:14.710Z,85.11
2022-09-22T00:50:07.652Z,86.23
2022-09-22T00:52:52.001Z,86.56
2022-09-22T00:55:25.447Z,86.23
2022-09-22T00:57:53.515Z,86.34
2022-09-22T01:00:20.184Z,87.30
2022-09-22T01:02:50.930Z,86.25
2022-09-22T01:05:18.616Z,86.55
2022-09-22T01:07:47.158Z,86.40
2022-09-22T01:10:13.880Z,86.19
2022-09-22T01:12:48.345Z,86.98
2022-09-22T01:15:28.355Z,87.69
2022-09-22T01:18:24.871Z,89.16
2022-09-22T01:20:58.270Z,90.76
2022-09-22T01:23:53.331Z,92.33
2022-09-22T01:27:04.756Z,93.39
2022-09-22T01:29:58.845Z,95.79
2022-09-22T01:32:40.629Z,96.78
2022-09-22T01:35:17.126Z,97.38
2022-09-22T01:37:49.316Z,97.58
2022-09-22T01:40:23.589Z,98.57
2022-09-22T01:43:03.413Z,98.18
2022-09-22T01:45:31.009Z,98.75
2022-09-22T01:48:05.453Z,99.72
2022-09-22T01:50:51.155Z,99.30
2022-09-22T01:53:22.620Z,100.00
2022-09-22T01:55:55.328Z,100.00
2022-09-22T01:58:31.268Z,100.00
2022-09-22T02:01:15.121Z,99.58
2022-09-22T02:03:56.853Z,99.33
2022-09-22T02:06:32.397Z,98.60
2022-09-22T02:09:06.580Z,98.82
2022-09-22T02:11:34.203Z,99.29
2022-09-22T02:14:02.021Z,99.58
2022-09-22T02:16:30.859Z,99.36
2022-09-22T02:19:12.619Z,100.00
2022-09-22T02:21:43.766Z,100.00
2022-09-22T02:24:31.333Z,100.00
2022-09-22T02:26:59.337Z,100.00
2022-09-22T02:29:32.435Z,99.84
2022-09-22T02:32:02.144Z,99.29
2022-09-22T02:34:28.932Z,99.75
2022-09-22T02:37:09.279Z,99.59
2022-09-22T02:40:03.413Z,99.87
2022-09-22T02:42:48.198Z,99.92
2022-09-22T02:45:19.866Z,100.00
2022-09-22T02:47:54.191Z,100.00
2022-09-22T02:50:23.949Z,100.00
2022-09-22T02:53:11.171Z,100.00
2022-09-22T02:55:38.549Z,100.00
2022-09-22T02:58:05.126Z,100.00
2022-09-22T03:00:34.791Z,100.00
2022-09-22T03:03:01.852Z,100.00
2022-09-22T03:05:28.412Z,100.00
2022-09-22T03:07:56.681Z,100.00
2022-09-22T03:10:27.039Z,100.00
2022-09-22T03:13:14.846Z,100.00
2022-09-22T03:15:40.510Z,100.00
2022-09-22T03:18:07.237Z,100.00
2022-09-22T03:20:33.860Z,100.00
2022-09-22T03:23:02.164Z,100.00
2022-09-22T03:25:28.678Z,100.00
2022-09-22T03:27:55.426Z,100.00
2022-09-22T03:30:23.688Z,100.00
2022-09-22T03:32:50.196Z,100.00
2022-09-22T03:35:16.766Z,100.00
2022-09-22T03:37:43.446Z,100.00
2022-09-22T03:40:10.492Z,100.00
2022-09-22T03:42:37.020Z,100.00
2022-09-22T03:45:05.400Z,100.00
2022-09-22T03:47:32.549Z,100.00
2022-09-22T03:49:59.042Z,100.00
2022-09-22T03:52:32.429Z,100.00
2022-09-22T03:54:59.305Z,100.00
2022-09-22T03:57:25.783Z,100.00
2022-09-22T03:59:54.144Z,100.00
2022-09-22T04:02:20.637Z,100.00
2022-09-22T04:04:49.486Z,100.00
2022-09-22T04:07:17.702Z,100.00
2022-09-22T04:09:44.179Z,100.00
2022-09-22T04:12:10.806Z,100.00
2022-09-22T04:14:41.776Z,100.00
2022-09-22T04:17:09.068Z,100.00
2022-09-22T04:19:35.837Z,100.00
2022-09-22T04:22:04.057Z,100.00
2022-09-22T04:24:30.755Z,100.00
2022-09-22T04:27:18.698Z,100.00
2022-09-22T04:29:49.965Z,100.00
2022-09-22T04:32:18.193Z,100.00
2022-09-22T04:34:45.058Z,100.00
2022-09-22T04:37:14.353Z,100.00
2022-09-22T04:39:41.278Z,100.00
2022-09-22T04:42:09.958Z,100.00
2022-09-22T04:44:36.679Z,100.00
2022-09-22T04:47:04.456Z,100.00
2022-09-22T04:49:31.260Z,100.00
2022-09-22T04:52:08.379Z,100.00
2022-09-22T04:54:35.996Z,100.00
2022-09-22T04:57:02.942Z,100.00
2022-09-22T04:59:31.549Z,100.00
2022-09-22T05:01:58.212Z,100.00
2022-09-22T05:04:26.955Z,100.00
2022-09-22T05:06:53.767Z,100.00
2022-09-22T05:09:21.024Z,100.00
2022-09-22T05:11:49.028Z,100.00
2022-09-22T05:14:15.976Z,100.00
2022-09-22T05:16:44.870Z,100.00
2022-09-22T05:19:11.419Z,100.00
2022-09-22T05:21:38.378Z,100.00
2022-09-22T05:24:05.099Z,100.00
2022-09-22T05:26:31.678Z,100.00
2022-09-22T05:29:04.677Z,100.00
2022-09-22T05:31:31.235Z,100.00
2022-09-22T05:33:57.735Z,100.00
2022-09-22T05:36:24.569Z,100.00
2022-09-22T05:38:54.447Z,100.00
2022-09-22T05:41:21.049Z,100.00
2022-09-22T05:43:47.816Z,100.00
2022-09-22T05:46:17.744Z,100.00
2022-09-22T05:48:46.011Z,100.00
2022-09-22T05:51:12.689Z,99.00
2022-09-22T05:53:39.222Z,97.94
2022-09-22T05:56:05.985Z,92.99
2022-09-22T05:58:34.206Z,88.37
2022-09-22T06:01:00.743Z,83.00
2022-09-22T06:03:27.304Z,79.91
2022-09-22T06:05:55.587Z,76.38
2022-09-22T06:08:22.067Z,73.60
2022-09-22T06:10:51.420Z,71.06
2022-09-22T06:13:18.131Z,68.80
2022-09-22T06:15:47.236Z,68.73
2022-09-22T06:18:15.336Z,68.52
2022-09-22T06:20:44.526Z,67.01
2022-09-22T06:23:15.494Z,64.73
2022-09-22T06:25:43.335Z,62.26
2022-09-22T06:28:12.357Z,63.52
2022-09-22T06:30:41.660Z,63.68
2022-09-22T06:33:09.693Z,63.70
2022-09-22T06:35:42.307Z,63.13
2022-09-22T06:38:12.452Z,63.86
2022-09-22T06:40:38.979Z,63.89
2022-09-22T06:43:14.566Z,64.15
2022-09-22T06:45:42.897Z,59.44
2022-09-22T06:48:12.887Z,56.86
2022-09-22T06:50:47.557Z,57.94
2022-09-22T06:53:17.702Z,58.43
2022-09-22T06:55:45.130Z,57.21
2022-09-22T06:58:13.265Z,57.11
2022-09-22T07:00:41.959Z,55.79
2022-09-22T07:03:20.903Z,56.27
2022-09-22T07:06:06.465Z,51.13
2022-09-22T07:08:37.388Z,54.84
2022-09-22T07:11:09.545Z,54.82
2022-09-22T07:13:40.780Z,54.56
2022-09-22T07:16:10.200Z,53.52
2022-09-22T07:18:40.796Z,51.24
2022-09-22T07:21:14.694Z,51.97
2022-09-22T07:23:44.683Z,53.13
2022-09-22T07:26:20.419Z,50.61
2022-09-22T07:28:50.347Z,48.16
2022-09-22T07:31:19.666Z,50.19
2022-09-22T07:33:46.747Z,50.34
2022-09-22T07:36:16.748Z,49.74
2022-09-22T07:38:48.885Z,48.69
2022-09-22T07:41:19.031Z,49.76
2022-09-22T07:43:45.838Z,48.17
2022-09-22T07:46:13.600Z,45.68
2022-09-22T07:48:46.924Z,46.64
2022-09-22T07:51:22.739Z,44.89
2022-09-22T07:54:02.502Z,47.39
2022-09-22T07:56:34.119Z,47.34
2022-09-22T07:59:09.866Z,48.11
2022-09-22T08:01:50.591Z,48.51
2022-09-22T08:04:22.762Z,48.28
2022-09-22T08:06:53.169Z,47.48
2022-09-22T08:09:19.728Z,47.58
2022-09-22T08:11:48.672Z,47.85
2022-09-22T08:14:17.532Z,46.12
2022-09-22T08:16:45.822Z,49.68
2022-09-22T08:19:13.973Z,47.36
2022-09-22T08:21:49.204Z,47.36
2022-09-22T08:24:21.976Z,49.09
2022-09-22T08:26:54.234Z,46.82
2022-09-22T08:29:21.832Z,47.24
2022-09-22T08:31:49.345Z,46.65
2022-09-22T08:34:20.953Z,47.06
2022-09-22T08:36:51.047Z,47.24
2022-09-22T08:42:24.848Z,45.60
2022-09-22T08:45:00.475Z,48.04
2022-09-22T08:48:13.813Z,45.50
2022-09-22T08:51:11.660Z,46.75
2022-09-22T08:53:44.958Z,44.34
2022-09-22T08:56:16.864Z,47.06
2022-09-22T08:58:57.478Z,45.36
2022-09-22T09:01:42.678Z,46.22
2022-09-22T09:04:35.285Z,44.90
2022-09-22T09:07:43.874Z,45.61
2022-09-22T09:10:37.985Z,45.78
2022-09-22T09:13:37.151Z,44.73
2022-09-22T09:16:34.202Z,44.19
2022-09-22T09:19:13.009Z,43.73
2022-09-22T09:21:43.715Z,46.02
2022-09-22T09:27:15.664Z,44.25
2022-09-22T09:30:10.400Z,44.96
2022-09-22T09:33:01.454Z,44.79
2022-09-22T09:35:41.434Z,45.07
2022-09-22T09:38:18.272Z,44.07
2022-09-22T09:40:54.323Z,44.73
2022-09-22T09:43:28.483Z,45.47
2022-09-22T09:46:07.056Z,44.72
2022-09-22T09:48:42.742Z,44.17
2022-09-22T09:51:14.321Z,43.25
2022-09-22T09:53:45.218Z,43.99
2022-09-22T09:56:25.225Z,44.40
2022-09-22T09:59:24.040Z,43.25
2022-09-22T10:01:53.996Z,43.11
2022-09-22T10:04:37.095Z,43.61
2022-09-22T10:07:16.219Z,46.66
2022-09-22T10:09:45.353Z,44.92
2022-09-22T10:12:41.434Z,44.49
2022-09-22T10:15:23.881Z,44.93
2022-09-22T10:17:51.273Z,45.83
2022-09-22T10:20:24.176Z,44.78
2022-09-22T10:22:50.882Z,45.29
2022-09-22T10:25:31.531Z,44.70
2022-09-22T10:28:09.970Z,43.23
2022-09-22T10:30:39.343Z,44.00
2022-09-22T10:33:08.867Z,43.28
2022-09-22T10:35:38.552Z,44.04
2022-09-22T10:38:21.594Z,43.23
2022-09-22T10:40:55.717Z,43.40
2022-09-22T10:43:25.092Z,43.03
2022-09-22T10:46:07.556Z,42.33
2022-09-22T10:48:54.240Z,43.12
2022-09-22T10:51:26.826Z,44.17
2022-09-22T10:54:05.825Z,42.14
2022-09-22T10:56:43.171Z,43.56
2022-09-22T10:59:32.669Z,43.12
2022-09-22T11:02:26.069Z,44.33
2022-09-22T11:05:44.833Z,43.17
2022-09-22T11:08:32.484Z,43.03
2022-09-22T11:14:42.945Z,43.21
2022-09-22T11:17:32.073Z,42.45
2022-09-22T11:20:18.517Z,42.39
2022-09-22T11:23:04.182Z,42.13
2022-09-22T11:25:47.235Z,42.47
2022-09-22T11:28:56.927Z,43.16
2022-09-22T11:31:46.703Z,40.94
2022-09-22T11:34:31.808Z,42.65
2022-09-22T11:37:28.426Z,41.94
2022-09-22T11:40:06.996Z,41.85
2022-09-22T11:42:45.447Z,42.60
2022-09-22T11:45:33.602Z,43.29
2022-09-22T11:48:30.434Z,42.63
2022-09-22T11:51:11.046Z,42.26
2022-09-22T11:54:10.161Z,42.21
2022-09-22T11:56:41.778Z,43.12
2022-09-22T11:59:21.715Z,41.79
2022-09-22T12:01:49.750Z,42.59
2022-09-22T12:04:57.130Z,41.76
2022-09-22T12:07:31.209Z,43.81
2022-09-22T12:10:04.914Z,43.17
2022-09-22T12:12:32.365Z,43.46
2022-09-22T12:15:31.534Z,42.99
2022-09-22T12:18:03.713Z,41.95
2022-09-22T12:20:36.922Z,42.75
2022-09-22T12:23:28.739Z,41.53
2022-09-22T12:25:58.266Z,41.00
2022-09-22T12:28:29.792Z,42.75
2022-09-22T12:31:06.807Z,41.94
2022-09-22T12:33:36.174Z,42.75
2022-09-22T12:36:04.204Z,41.99
2022-09-22T12:38:33.219Z,42.86
2022-09-22T12:41:04.211Z,42.83
2022-09-22T12:43:38.974Z,43.09
2022-09-22T12:46:25.783Z,40.69
2022-09-22T12:48:58.895Z,42.66
2022-09-22T12:51:25.342Z,43.24
2022-09-22T12:54:12.358Z,43.00
2022-09-22T12:56:48.917Z,42.87
2022-09-22T12:59:41.943Z,41.02
2022-09-22T13:02:11.618Z,42.62
2022-09-22T13:04:38.420Z,43.52
2022-09-22T13:07:25.421Z,42.68
2022-09-22T13:10:23.720Z,41.48
2022-09-22T13:13:07.636Z,40.70
2022-09-22T13:15:46.298Z,41.69
2022-09-22T13:18:40.748Z,40.16
2022-09-22T13:21:16.343Z,41.53
2022-09-22T13:23:53.754Z,40.00
2022-09-22T13:26:26.903Z,41.33
2022-09-22T13:29:16.773Z,40.72
2022-09-22T13:31:45.263Z,42.99
2022-09-22T13:34:20.590Z,41.06
2022-09-22T13:36:48.065Z,42.61
2022-09-22T13:39:21.280Z,42.77
2022-09-22T13:42:02.761Z,42.15
2022-09-22T13:44:33.351Z,43.31
2022-09-22T13:47:07.007Z,42.56
2022-09-22T13:49:41.306Z,42.03
2022-09-22T13:52:21.940Z,40.52
2022-09-22T13:54:52.894Z,41.95
2022-09-22T13:57:28.196Z,41.43
2022-09-22T13:59:57.859Z,41.44
2022-09-22T14:02:31.553Z,41.11
2022-09-22T14:05:06.393Z,41.80
2022-09-22T14:07:45.150Z,41.83
2022-09-22T14:10:30.146Z,42.01
2022-09-22T14:12:58.875Z,41.21
2022-09-22T14:15:37.590Z,39.70
2022-09-22T14:18:26.423Z,38.29
2022-09-22T14:20:57.612Z,41.35
2022-09-22T14:23:30.440Z,41.32
2022-09-22T14:25:59.038Z,40.83
2022-09-22T14:28:31.434Z,38.95
2022-09-22T14:30:58.103Z,40.71
2022-09-22T14:33:29.453Z,40.70
2022-09-22T14:36:07.884Z,38.81
2022-09-22T14:38:38.136Z,39.13
2022-09-22T14:41:25.493Z,36.48
2022-09-22T14:43:53.046Z,38.89
2022-09-22T14:46:35.737Z,38.19
2022-09-22T14:49:40.843Z,36.31
2022-09-22T14:52:19.912Z,37.93
2022-09-22T14:54:46.420Z,38.28
2022-09-22T14:57:16.919Z,37.87
2022-09-22T15:00:17.605Z,36.51
2022-09-22T15:02:52.249Z,35.80
2022-09-22T15:05:29.853Z,36.35
2022-09-22T15:07:58.340Z,36.81
2022-09-22T15:10:34.476Z,36.85
2022-09-22T15:13:39.120Z,32.83
2022-09-22T15:16:29.276Z,35.07
2022-09-22T15:18:55.840Z,36.04
2022-09-22T15:21:29.140Z,37.58
2022-09-22T15:23:58.230Z,38.29
2022-09-22T15:26:26.776Z,39.55
2022-09-22T15:28:55.350Z,39.66
2022-09-22T15:31:28.369Z,39.60
2022-09-22T15:34:01.487Z,40.36
2022-09-22T15:36:34.513Z,40.58
2022-09-22T15:39:07.812Z,39.71
2022-09-22T15:41:34.955Z,40.77
2022-09-22T15:44:02.757Z,41.25
2022-09-22T15:46:34.011Z,40.71
2022-09-22T15:49:08.090Z,41.40
2022-09-22T15:51:35.266Z,42.02
2022-09-22T15:54:01.768Z,42.97
2022-09-22T15:56:36.967Z,43.37
2022-09-22T15:59:04.258Z,43.80
2022-09-22T16:01:30.732Z,44.14
2022-09-22T16:04:00.472Z,44.34
2022-09-22T16:06:27.691Z,44.94
2022-09-22T16:08:55.452Z,45.43
2022-09-22T16:11:33.332Z,45.80
2022-09-22T16:14:03.590Z,45.85
2022-09-22T16:16:34.136Z,46.77
2022-09-22T16:19:07.314Z,46.13
2022-09-22T16:21:36.111Z,46.63
2022-09-22T16:24:08.671Z,47.29
2022-09-22T16:26:39.208Z,47.18
2022-09-22T16:29:07.504Z,47.37
2022-09-22T16:31:35.487Z,47.46
2022-09-22T16:34:05.698Z,47.96
2022-09-22T16:36:35.157Z,48.30
2022-09-22T16:39:04.074Z,48.60
2022-09-22T16:41:37.777Z,49.74
2022-09-22T16:44:06.526Z,49.24
2022-09-22T16:46:38.282Z,49.94
2022-09-22T16:49:16.029Z,50.33
2022-09-22T16:51:46.733Z,50.24
2022-09-22T16:54:14.332Z,50.41
2022-09-22T16:56:47.537Z,50.87
2022-09-22T16:59:16.379Z,51.27
2022-09-22T17:01:44.004Z,50.88
2022-09-22T17:04:13.231Z,51.60
2022-09-22T17:06:41.746Z,51.64
2022-09-22T17:09:09.936Z,52.41
2022-09-22T17:11:41.370Z,52.32
2022-09-22T17:14:12.656Z,53.10
2022-09-22T17:16:52.085Z,53.87
2022-09-22T17:19:22.499Z,53.81
2022-09-22T17:21:51.954Z,54.91
2022-09-22T17:24:21.116Z,56.01
2022-09-22T17:26:52.796Z,56.59
2022-09-22T17:29:29.469Z,57.23
2022-09-22T17:31:59.370Z,58.20
2022-09-22T17:34:28.442Z,58.81
2022-09-22T17:36:56.221Z,59.91
2022-09-22T17:39:24.197Z,60.61
2022-09-22T17:41:50.924Z,61.46
2022-09-22T17:44:23.619Z,61.67
2022-09-22T17:47:10.553Z,62.83
2022-09-22T17:49:56.886Z,63.88
2022-09-22T17:52:29.198Z,67.88
2022-09-22T17:55:09.696Z,64.62
2022-09-22T17:57:47.965Z,65.25
2022-09-22T18:00:21.198Z,65.30
2022-09-22T18:02:49.996Z,65.21
2022-09-22T18:05:24.551Z,65.55
2022-09-22T18:07:58.528Z,65.23
2022-09-22T18:10:34.416Z,66.70
2022-09-22T18:13:01.688Z,65.83
2022-09-22T18:15:33.724Z,66.14
2022-09-22T18:18:02.194Z,66.73
2022-09-22T18:20:29.740Z,66.97
2022-09-22T18:22:57.909Z,67.82
2022-09-22T18:25:27.391Z,68.04
2022-09-22T18:27:55.082Z,68.14
2022-09-22T18:30:23.873Z,67.83
2022-09-22T18:32:50.579Z,68.48
2022-09-22T18:35:17.396Z,69.30
2022-09-22T18:37:44.344Z,68.75
2022-09-22T18:40:14.535Z,70.04
2022-09-22T18:42:44.742Z,72.04
2022-09-22T18:45:12.505Z,71.66
2022-09-22T18:47:43.815Z,72.40
2022-09-22T18:50:11.625Z,72.34
2022-09-22T18:52:42.576Z,72.39
2022-09-22T18:55:11.669Z,71.47
2022-09-22T18:57:38.314Z,72.14
2022-09-22T19:00:05.263Z,71.86
2022-09-22T19:02:31.984Z,72.53
2022-09-22T19:04:58.619Z,72.03
2022-09-22T19:07:41.892Z,73.47
2022-09-22T19:10:11.783Z,75.20
2022-09-22T19:12:40.483Z,73.79
2022-09-22T19:15:13.382Z,74.65
2022-09-22T19:17:44.059Z,74.60
2022-09-22T19:20:17.650Z,75.09
2022-09-22T19:22:44.589Z,76.50
2022-09-22T19:25:15.345Z,76.38
2022-09-22T19:27:42.260Z,76.37
2022-09-22T19:30:10.459Z,76.70
2022-09-22T19:32:37.081Z,77.62
2022-09-22T19:35:05.141Z,77.93
2022-09-22T19:37:40.219Z,78.73
2022-09-22T19:40:09.301Z,79.61
2022-09-22T19:42:40.439Z,79.82
2022-09-22T19:45:09.674Z,80.48
2022-09-22T19:47:36.299Z,80.33
2022-09-22T19:50:03.928Z,81.18
2022-09-22T19:52:30.552Z,80.62
2022-09-22T19:54:59.512Z,79.91
2022-09-22T19:57:25.971Z,80.92
2022-09-22T19:59:52.804Z,79.91
2022-09-22T20:02:20.932Z,80.25
2022-09-22T20:04:47.407Z,81.30
2022-09-22T20:07:14.001Z,81.00
2022-09-22T20:09:40.620Z,81.30
2022-09-22T20:12:07.808Z,82.38
2022-09-22T20:14:36.242Z,83.22
2022-09-22T20:17:05.657Z,83.53
2022-09-22T20:19:34.762Z,84.07
2022-09-22T20:22:21.309Z,84.79
2022-09-22T20:24:54.921Z,85.11
2022-09-22T20:27:29.669Z,85.59
2022-09-22T20:29:57.442Z,85.32
2022-09-22T20:32:26.301Z,85.36
2022-09-22T20:34:54.511Z,85.52
2022-09-22T20:37:22.262Z,85.96
2022-09-22T20:39:48.731Z,87.21
2022-09-22T20:42:17.685Z,86.55
2022-09-22T20:44:44.382Z,86.46
2022-09-22T20:47:18.638Z,87.31
2022-09-22T20:49:51.962Z,87.84
2022-09-22T20:52:22.474Z,88.92
2022-09-22T20:54:49.038Z,88.93
2022-09-22T20:57:16.273Z,89.00
2022-09-22T20:59:46.291Z,89.00
2022-09-22T21:02:14.218Z,89.50
2022-09-22T21:04:41.267Z,89.68
2022-09-22T21:07:08.137Z,90.02
2022-09-22T21:09:55.372Z,90.01
2022-09-22T21:12:25.264Z,90.81
2022-09-22T21:15:01.671Z,90.41
2022-09-22T21:17:29.771Z,92.00
2022-09-22T21:19:57.844Z,92.11
2022-09-22T21:22:25.450Z,92.87
2022-09-22T21:24:52.615Z,94.19
2022-09-22T21:27:21.147Z,93.67
2022-09-22T21:29:49.453Z,95.06
2022-09-22T21:32:15.987Z,95.10
2022-09-22T21:34:43.034Z,95.04
2022-09-22T21:37:11.660Z,94.36
2022-09-22T21:39:40.098Z,94.70
2022-09-22T21:42:06.729Z,94.07
2022-09-22T21:44:40.359Z,94.80
2022-09-22T21:47:08.733Z,95.63
2022-09-22T21:49:35.205Z,96.57
2022-09-22T21:52:12.987Z,96.35
2022-09-22T21:54:39.454Z,96.66
2022-09-22T21:57:05.933Z,96.87
2022-09-22T21:59:32.560Z,97.93
2022-09-22T22:02:01.307Z,97.15
2022-09-22T22:04:27.908Z,97.74
2022-09-22T22:06:56.854Z,97.81
2022-09-22T22:09:25.748Z,98.30
2022-09-22T22:12:01.103Z,98.85
2022-09-22T22:14:32.049Z,99.79
2022-09-22T22:16:58.709Z,100.00
2022-09-22T22:19:28.625Z,100.00
2022-09-22T22:21:55.549Z,100.00
2022-09-22T22:24:43.616Z,100.00
2022-09-22T22:27:10.888Z,100.00
2022-09-22T22:29:40.145Z,100.00
2022-09-22T22:32:09.237Z,100.00
2022-09-22T22:34:36.446Z,100.00
2022-09-22T22:37:04.669Z,100.00
2022-09-22T22:39:31.513Z,100.00
2022-09-22T22:41:58.023Z,100.00
2022-09-22T22:44:24.540Z,100.00
2022-09-22T22:46:59.896Z,100.00
2022-09-22T22:49:29.883Z,100.00
2022-09-22T22:51:56.372Z,100.00
2022-09-22T22:54:23.086Z,100.00
2022-09-22T22:56:51.488Z,100.00
2022-09-22T22:59:18.418Z,100.00
2022-09-22T23:01:52.728Z,100.00
2022-09-22T23:04:19.409Z,100.00
2022-09-22T23:06:47.337Z,100.00
2022-09-22T23:09:18.627Z,100.00
2022-09-22T23:11:46.371Z,100.00
2022-09-22T23:14:17.588Z,100.00
2022-09-22T23:16:46.590Z,100.00
2022-09-22T23:19:16.872Z,100.00
2022-09-22T23:21:43.498Z,100.00
2022-09-22T23:24:14.655Z,100.00
2022-09-22T23:26:41.769Z,100.00
2022-09-22T23:29:08.393Z,100.00
2022-09-22T23:31:35.061Z,100.00
2022-09-22T23:34:01.661Z,100.00
2022-09-22T23:36:29.511Z,100.00
2022-09-22T23:39:00.143Z,100.00
2022-09-22T23:41:26.848Z,100.00
2022-09-22T23:43:53.780Z,100.00
2022-09-22T23:46:21.362Z,100.00
2022-09-22T23:48:47.977Z,100.00
2022-09-22T23:51:16.603Z,100.00
2022-09-22T23:53:43.470Z,100.00
2022-09-22T23:56:09.965Z,100.00
2022-09-22T23:58:38.088Z,100.00
